Flight Track Log - Related Links

Times and Time Zones

All times are in EDT time to prevent confusion due to time zone crossing. See the N15FS flight status page for this flight to view local times or setup timezone preferences in your user account.

Time Position Orientation Groundspeed Altitude Reporting Facility
EDT Latitude Longitude Course Direction KTS MPH feet Rate Location/Type
Sun 02:51:00 PM 42.6409 -114.0895 114° Southeast  Level FlightAware Approximate
Sun 02:52:00 PM 42.6210 -114.0296 114° Southeast  Level FlightAware Approximate
Sun 02:53:00 PM 42.6010 -113.9697 114° Southeast  Level FlightAware Approximate
Sun 02:53:45 PM 42.6775 -114.1997 103° East 99 114 7,400  Level Salt Lake Center
Sun 02:54:00 PM 42.5816 -113.9095 109° East  Level FlightAware Approximate
Sun 02:54:47 PM 42.6683 -114.1556 106° East 112 129 7,900  Level Salt Lake Center
Sun 02:55:00 PM 42.5667 -113.8472 90° East  Level FlightAware Approximate
Sun 02:55:49 PM 42.6558 -114.1114 111° Southeast 114 131 8,400  Level Salt Lake Center
Sun 02:56:00 PM 42.5592 -113.7830 107° East  Level FlightAware Approximate
Sun 02:56:51 PM 42.6436 -114.0686 111° Southeast 123 142 8,800  Level Salt Lake Center
Sun 02:57:00 PM 42.5452 -113.7201 107° East  Level FlightAware Approximate
Sun 02:57:53 PM 42.6272 -114.0236 116° Southeast 125 144 9,300  Level Salt Lake Center
Sun 02:58:00 PM 42.5317 -113.6570 103° East  Level FlightAware Approximate
Sun 02:58:55 PM 42.6133 -113.9778 112° Southeast 125 144 9,800  Level Salt Lake Center
Sun 02:59:00 PM 42.5212 -113.5929 103° East  Level FlightAware Approximate
Sun 02:59:57 PM 42.5986 -113.9325 114° Southeast 125 144 10,300  Level Salt Lake Center
Sun 03:00:59 PM 42.5864 -113.8842 109° East 126 145 10,800 480 Climbing Salt Lake Center
Sun 03:02:02 PM 42.5742 -113.8333 108° East 130 150 11,300 432 Climbing Salt Lake Center
Sun 03:03:04 PM 42.5669 -113.7872 102° East 134 154 11,700 387 Climbing Salt Lake Center
Sun 03:04:06 PM 42.5589 -113.7378 102° East 134 154 12,100 484 Climbing Salt Lake Center
Sun 03:05:08 PM 42.5472 -113.6761 104° East 139 160 12,700 532 Climbing Salt Lake Center
Sun 03:06:10 PM 42.5389 -113.6261 103° East 139 160 13,200 484 Climbing Salt Lake Center
Sun 03:07:12 PM 42.5286 -113.5736 105° East 139 160 13,700 435 Climbing Salt Lake Center
Sun 03:08:14 PM 42.5183 -113.5214 105° East 140 161 14,100 435 Climbing Salt Lake Center
Sun 03:09:16 PM 42.5086 -113.4692 104° East 141 162 14,600 435 Climbing Salt Lake Center
Sun 03:10:18 PM 42.4989 -113.4167 104° East 142 163 15,000 242 Climbing Salt Lake Center
Sun 03:11:20 PM 42.4856 -113.3481 105° East 152 175 15,100 48 Climbing Salt Lake Center
Sun 03:12:22 PM 42.4744 -113.2831 103° East 170 196 15,100 -48 Level Salt Lake Center
Sun 03:13:25 PM 42.4628 -113.2175 104° East 175 201 15,000  Descending Salt Lake Center
Sun 03:14:27 PM 42.4500 -113.1522 105° East 176 203 15,100 48 Climbing Salt Lake Center
Sun 03:15:29 PM 42.4386 -113.0886 104° East 176 203 15,100  Level Salt Lake Center
Sun 03:16:31 PM 42.4253 -113.0258 106° East 176 203 15,100 -48 Level Salt Lake Center
Sun 03:17:33 PM 42.4119 -112.9475 103° East 176 203 15,000  Descending Salt Lake Center
Sun 03:18:35 PM 42.4000 -112.8833 104° East 176 203 15,100 48 Climbing Salt Lake Center
Sun 03:19:37 PM 42.3864 -112.8181 106° East 176 203 15,100  Level Salt Lake Center
Sun 03:20:39 PM 42.3753 -112.7547 103° East 177 204 15,100  Level Salt Lake Center
Sun 03:21:41 PM 42.3633 -112.6936 105° East 175 201 15,100  Level Salt Lake Center
Sun 03:22:43 PM 42.3497 -112.6275 106° East 175 201 15,100  Level Salt Lake Center
Sun 03:23:45 PM 42.3369 -112.5519 103° East 175 201 15,100 -48 Level Salt Lake Center
Sun 03:24:47 PM 42.3233 -112.4883 106° East 175 201 15,000  Descending Salt Lake Center
Sun 03:25:50 PM 42.3111 -112.4236 104° East 175 201 15,100 48 Climbing Salt Lake Center
Sun 03:26:52 PM 42.2992 -112.3589 104° East 176 203 15,100 -48 Level Salt Lake Center
Sun 03:27:54 PM 42.2850 -112.2947 107° East 176 203 15,000  Descending Salt Lake Center
Sun 03:28:56 PM 42.2708 -112.2183 104° East 176 203 15,100  Climbing Salt Lake Center
Sun 03:29:58 PM 42.2583 -112.1528 104° East 178 205 15,000 -48 Descending Salt Lake Center
Sun 03:31:00 PM 42.2439 -112.0875 107° East 180 207 15,000 48 Level Salt Lake Center
Sun 03:32:02 PM 42.2322 -112.0239 104° East 178 205 15,100 48 Climbing Salt Lake Center
Sun 03:33:04 PM 42.2203 -111.9617 105° East 175 201 15,100  Level Salt Lake Center
Sun 03:34:06 PM 42.2056 -111.8986 107° East 175 201 15,100 -48 Level Salt Lake Center
Sun 03:35:08 PM 42.1906 -111.8214 105° East 176 203 15,000 -48 Descending Salt Lake Center
Sun 03:36:10 PM 42.1792 -111.7583 104° East 176 203 15,000  Level Salt Lake Center
Sun 03:37:12 PM 42.1656 -111.6942 106° East 176 203 15,000  Level Salt Lake Center
Sun 03:38:15 PM 42.1528 -111.6311 105° East 176 203 15,000  Level Salt Lake Center
Sun 03:39:17 PM 42.1394 -111.5656 105° East 178 205 15,000  Level Salt Lake Center
Sun 03:40:19 PM 42.1269 -111.5008 105° East 178 205 15,000  Level Salt Lake Center
Sun 03:41:21 PM 42.1108 -111.4208 105° East 183 211 15,000  Level Salt Lake Center
Sun 03:42:23 PM 42.0981 -111.3581 105° East 180 207 15,000  Level Salt Lake Center
Sun 03:43:25 PM 42.0836 -111.2950 107° East 179 206 15,000  Level Salt Lake Center
Sun 03:44:27 PM 42.0706 -111.2319 106° East 178 205 15,000  Level Salt Lake Center
Sun 03:45:29 PM 42.0572 -111.1683 106° East 178 205 15,000 -48 Level Salt Lake Center
Sun 03:46:31 PM 42.0431 -111.1022 106° East 179 206 14,900 -48 Descending Salt Lake Center
Sun 03:47:33 PM 42.0286 -111.0242 104° East 181 208 14,900  Level Salt Lake Center
Sun 03:48:35 PM 42.0150 -110.9567 105° East 182 209 14,900 97 Level Salt Lake Center
Sun 03:49:37 PM 42.0000 -110.8872 106° East 185 213 15,100 97 Climbing Salt Lake Center
Sun 03:50:39 PM 41.9864 -110.8250 106° East 184 212 15,100  Level Salt Lake Center
Sun 03:51:42 PM 41.9722 -110.7536 105° East 181 208 15,100  Level Salt Lake Center
Sun 03:52:44 PM 41.9586 -110.6931 107° East 180 207 15,100  Level Salt Lake Center
Sun 03:53:46 PM 41.9458 -110.6331 106° East 178 205 15,100  Level Salt Lake Center
Sun 03:54:48 PM 41.9311 -110.5625 106° East 177 204 15,100  Level Salt Lake Center
Sun 03:55:50 PM 41.9169 -110.5025 108° East 177 204 15,100  Level Salt Lake Center
Sun 03:56:52 PM 41.9033 -110.4300 104° East 177 204 15,100  Level Salt Lake Center
Sun 03:57:54 PM 41.8903 -110.3686 106° East 177 204 15,100  Level Salt Lake Center
Sun 03:58:56 PM 41.8744 -110.2981 107° East 178 205 15,100  Level Salt Lake Center
Sun 03:59:58 PM 41.8622 -110.2381 105° East 177 204 15,100  Level Salt Lake Center
Sun 04:01:01 PM 41.8453 -110.1669 108° East 177 204 15,100  Level Salt Lake Center
Sun 04:02:02 PM 41.8325 -110.1058 106° East 177 204 15,100  Level Salt Lake Center
Sun 04:03:04 PM 41.8169 -110.0336 106° East 178 205 15,100  Level Salt Lake Center
Sun 04:04:06 PM 41.8033 -109.9725 107° East 178 205 15,100  Level Salt Lake Center
Sun 04:05:09 PM 41.7875 -109.9011 107° East 178 205 15,100  Level Salt Lake Center
Sun 04:06:11 PM 41.7744 -109.8397 106° East 178 205 15,100  Level Salt Lake Center
Sun 04:07:13 PM 41.7578 -109.7686 107° East 178 205 15,100  Level Salt Lake Center
Sun 04:08:15 PM 41.7450 -109.7075 106° East 178 205 15,100  Level Salt Lake Center
Sun 04:09:17 PM 41.7283 -109.6344 107° East 180 207 15,100  Level Salt Lake Center
Sun 04:10:19 PM 41.7142 -109.5711 107° East 182 209 15,100  Level Salt Lake Center
Sun 04:11:21 PM 41.6997 -109.5089 107° East 182 209 15,100  Level Salt Lake Center
Sun 04:12:23 PM 41.6842 -109.4361 106° East 182 209 15,100  Level Salt Lake Center
Sun 04:13:25 PM 41.6694 -109.3731 107° East 183 211 15,100  Level Salt Lake Center
Sun 04:14:27 PM 41.6533 -109.2994 106° East 183 211 15,100  Level Salt Lake Center
Sun 04:15:29 PM 41.6397 -109.2364 106° East 183 211 15,100  Level Salt Lake Center
Sun 04:16:31 PM 41.6219 -109.1642 108° East 183 211 15,100  Level Salt Lake Center
Sun 04:17:33 PM 41.6083 -109.1006 106° East 183 211 15,100  Level Salt Lake Center
Sun 04:18:35 PM 41.5928 -109.0250 105° East 183 211 15,100  Level Salt Lake Center
Sun 04:19:38 PM 41.5772 -108.9622 108° East 184 212 15,100  Level Salt Lake Center
Sun 04:20:40 PM 41.5625 -108.8978 107° East 185 213 15,100 -48 Level Salt Lake Center
Sun 04:21:42 PM 41.5478 -108.8225 105° East 186 214 15,000  Descending Salt Lake Center
Sun 04:22:44 PM 41.5344 -108.7594 106° East 186 214 15,100  Climbing Salt Lake Center
Sun 04:23:46 PM 41.5172 -108.6869 108° East 185 213 15,000 -48 Descending Salt Lake Center
Sun 04:24:48 PM 41.5025 -108.6242 107° East 185 213 15,000  Level Salt Lake Center
Sun 04:25:50 PM 41.4858 -108.5489 106° East 186 214 15,000 48 Level Salt Lake Center
Sun 04:26:52 PM 41.4711 -108.4856 107° East 186 214 15,100 48 Climbing Salt Lake Center
Sun 04:27:54 PM 41.4547 -108.4103 106° East 186 214 15,100  Level Salt Lake Center
Sun 04:28:56 PM 41.4411 -108.3483 106° East 186 214 15,100  Level Salt Lake Center
Sun 04:29:58 PM 41.4258 -108.2778 106° East 185 213 15,100 -48 Level Salt Lake Center
Sun 04:31:00 PM 41.4114 -108.2161 107° East 184 212 15,000  Descending Salt Lake Center
Sun 04:32:02 PM 41.3942 -108.1433 107° East 184 212 15,100 48 Climbing Salt Lake Center
Sun 04:33:04 PM 41.3808 -108.0806 106° East 184 212 15,100  Level Salt Lake Center
Sun 04:34:07 PM 41.3631 -108.0047 107° East 186 214 15,100 49 Level Salt Lake Center
Sun 04:35:06 PM 41.3469 -107.9414 109° East 189 217 15,200  Climbing Denver Center
Sun 04:36:08 PM 41.3319 -107.8778 107° East 189 217 15,100  Descending Denver Center
Sun 04:37:11 PM 41.3150 -107.8022 107° East 189 217 15,200  Climbing Denver Center
Sun 04:38:13 PM 41.3003 -107.7381 107° East 189 217 15,100 -48 Descending Denver Center
Sun 04:39:15 PM 41.2831 -107.6631 107° East 189 217 15,100 48 Level Denver Center
Sun 04:40:17 PM 41.2681 -107.5992 107° East 189 217 15,200 48 Climbing Denver Center
Sun 04:41:19 PM 41.2519 -107.5275 107° East 186 214 15,200 -48 Level Denver Center
Sun 04:42:21 PM 41.2367 -107.4633 108° East 186 214 15,100  Descending Denver Center
Sun 04:43:23 PM 41.2194 -107.3917 108° East 186 214 15,200  Climbing Denver Center
Sun 04:44:25 PM 41.2053 -107.3308 107° East 184 212 15,100 -48 Descending Denver Center
Sun 04:45:27 PM 41.1903 -107.2669 107° East 184 212 15,100 -48 Level Denver Center
Sun 04:46:29 PM 41.1728 -107.1958 108° East 184 212 15,000  Descending Denver Center
Sun 04:47:31 PM 41.1586 -107.1336 107° East 184 212 15,100  Climbing Denver Center
Sun 04:48:33 PM 41.1403 -107.0606 108° East 184 212 15,000 -48 Descending Denver Center
Sun 04:49:35 PM 41.1256 -106.9969 107° East 184 212 15,000 48 Level Denver Center
Sun 04:50:37 PM 41.1069 -106.9253 109° East 185 213 15,100  Climbing Denver Center
Sun 04:51:40 PM 41.0925 -106.8631 107° East 185 213 15,000 -48 Descending Denver Center
Sun 04:52:42 PM 41.0756 -106.7906 107° East 185 213 15,000  Level Denver Center
Sun 04:53:44 PM 41.0594 -106.7300 109° East 184 212 15,000  Level Denver Center
Sun 04:54:46 PM 41.0431 -106.6603 107° East 181 208 15,000 48 Level Denver Center
Sun 04:55:48 PM 41.0303 -106.5961 105° East 182 209 15,100  Climbing Denver Center
Sun 04:56:50 PM 41.0267 -106.5153 93° East 191 220 15,000 -48 Descending Denver Center
Sun 04:57:52 PM 41.0150 -106.4433 102° East 195 224 15,000  Level Denver Center
Sun 04:58:54 PM 40.9922 -106.3850 117° Southeast 190 219 15,000 48 Level Denver Center
Sun 04:59:56 PM 40.9636 -106.3153 119° Southeast 190 219 15,100  Climbing Denver Center
Sun 05:00:58 PM 40.9422 -106.2583 116° Southeast 189 217 15,000 -48 Descending Denver Center
Sun 05:02:00 PM 40.9158 -106.1886 117° Southeast 189 217 15,000  Level Denver Center
Sun 05:03:02 PM 40.8961 -106.1358 116° Southeast 189 217 15,000  Level Denver Center
Sun 05:04:04 PM 40.8750 -106.0778 116° Southeast 183 211 15,000 48 Level Denver Center
Sun 05:05:06 PM 40.8506 -106.0156 117° Southeast 183 211 15,100  Climbing Denver Center
Sun 05:06:08 PM 40.8269 -105.9383 112° Southeast 185 213 15,000 -49 Descending Denver Center
Sun 05:07:09 PM 40.8150 -105.8764 104° East 187 215 15,000  Level Denver Center
Sun 05:08:11 PM 40.7978 -105.7983 106° East 188 216 15,000  Level Denver Center
Sun 05:09:13 PM 40.7856 -105.7339 104° East 182 209 15,000 -145 Level Denver Center
Sun 05:10:15 PM 40.7697 -105.6650 107° East 191 220 14,700 -290 Descending Denver Center
Sun 05:11:17 PM 40.7539 -105.5989 108° East 192 221 14,400 -290 Descending Denver Center
Sun 05:12:19 PM 40.7400 -105.5381 107° East 181 208 14,100 -194 Descending Denver Center
Sun 05:13:21 PM 40.7233 -105.4803 111° Southeast 176 203 14,000 -48 Descending Denver Center
Sun 05:14:23 PM 40.7094 -105.4175 106° East 175 201 14,000  Level Denver Center
Sun 05:15:25 PM 40.6928 -105.3489 108° East 170 196 14,000  Level Denver Center
Sun 05:16:26 PM 40.6781 -105.2875 108° East 170 196 14,000 -244 Level Denver Center
Sun 05:17:28 PM 40.6450 -105.2322 128° Southeast 200 230 13,500 -581 Descending Denver Center
Sun 05:18:30 PM 40.6061 -105.1894 140° Southeast 189 217 12,800 -629 Descending Denver Center
Sun 05:19:32 PM 40.5706 -105.1481 139° Southeast 178 205 12,200 -387 Descending Denver Center
Sun 05:20:34 PM 40.5386 -105.1119 139° Southeast 157 181 12,000 -194 Descending Denver Center
Sun 05:22:00 PM 40.4835 -105.0558 128° Southeast  Level FlightAware Approximate
Sun 05:29:00 PM 40.4518 -105.0113 128° Southeast  Level Estimated
Sun 05:30:00 PM 40.4518 -105.0113 102° East  Level Estimated
Sun 05:31:00 PM 40.4518 -105.0113 128° Southeast  Level Estimated
Sun 05:32:00 PM 40.4518 -105.0113 102° East  Level Estimated

Login

Don't have an account? Register now (free) for customized features, flight alerts, and more!